sensor_id;sensor_type;location;lat;lon;timestamp;temperature;humidity
29241;DHT22;16268;49.880;8.648;2022-08-01T00:01:02;25.40;97.30
29241;DHT22;16268;49.880;8.648;2022-08-01T00:03:28;25.40;97.50
29241;DHT22;16268;49.880;8.648;2022-08-01T00:05:53;25.30;97.40
29241;DHT22;16268;49.880;8.648;2022-08-01T00:08:19;25.30;97.50
29241;DHT22;16268;49.880;8.648;2022-08-01T00:10:44;25.30;97.70
29241;DHT22;16268;49.880;8.648;2022-08-01T00:13:10;25.30;97.80
29241;DHT22;16268;49.880;8.648;2022-08-01T00:15:36;25.20;97.90
29241;DHT22;16268;49.880;8.648;2022-08-01T00:18:01;25.30;98.10
29241;DHT22;16268;49.880;8.648;2022-08-01T00:20:27;25.30;98.20
29241;DHT22;16268;49.880;8.648;2022-08-01T00:22:52;25.20;98.20
29241;DHT22;16268;49.880;8.648;2022-08-01T00:25:18;25.20;98.40
29241;DHT22;16268;49.880;8.648;2022-08-01T00:27:43;25.20;98.40
29241;DHT22;16268;49.880;8.648;2022-08-01T00:30:09;25.20;98.50
29241;DHT22;16268;49.880;8.648;2022-08-01T00:32:35;25.20;98.60
29241;DHT22;16268;49.880;8.648;2022-08-01T00:35:00;25.20;98.70
29241;DHT22;16268;49.880;8.648;2022-08-01T00:37:26;25.20;98.80
29241;DHT22;16268;49.880;8.648;2022-08-01T00:39:51;25.20;98.90
29241;DHT22;16268;49.880;8.648;2022-08-01T00:42:17;25.10;99.00
29241;DHT22;16268;49.880;8.648;2022-08-01T00:44:43;25.10;99.00
29241;DHT22;16268;49.880;8.648;2022-08-01T00:47:08;25.10;99.40
29241;DHT22;16268;49.880;8.648;2022-08-01T00:49:34;25.00;99.40
29241;DHT22;16268;49.880;8.648;2022-08-01T00:52:00;25.00;99.50
29241;DHT22;16268;49.880;8.648;2022-08-01T00:54:27;25.00;99.60
29241;DHT22;16268;49.880;8.648;2022-08-01T00:56:54;25.00;99.60
29241;DHT22;16268;49.880;8.648;2022-08-01T00:59:21;25.00;99.70
29241;DHT22;16268;49.880;8.648;2022-08-01T01:01:46;25.00;99.80
29241;DHT22;16268;49.880;8.648;2022-08-01T01:04:12;25.00;99.90
29241;DHT22;16268;49.880;8.648;2022-08-01T01:06:48;24.90;99.90
29241;DHT22;16268;49.880;8.648;2022-08-01T01:12:23;24.90;99.90
29241;DHT22;16268;49.880;8.648;2022-08-01T01:15:16;24.90;99.90
29241;DHT22;16268;49.880;8.648;2022-08-01T01:17:53;24.90;99.90
29241;DHT22;16268;49.880;8.648;2022-08-01T01:20:23;24.80;99.90
29241;DHT22;16268;49.880;8.648;2022-08-01T01:26:09;24.80;99.90
29241;DHT22;16268;49.880;8.648;2022-08-01T01:29:04;24.80;99.90
29241;DHT22;16268;49.880;8.648;2022-08-01T01:31:33;24.90;99.90
29241;DHT22;16268;49.880;8.648;2022-08-01T01:34:03;24.90;99.90
29241;DHT22;16268;49.880;8.648;2022-08-01T01:36:30;24.90;99.90
29241;DHT22;16268;49.880;8.648;2022-08-01T01:38:57;24.90;99.90
29241;DHT22;16268;49.880;8.648;2022-08-01T01:41:24;24.90;99.90
29241;DHT22;16268;49.880;8.648;2022-08-01T01:43:51;24.80;99.90
29241;DHT22;16268;49.880;8.648;2022-08-01T01:46:22;24.80;99.90
29241;DHT22;16268;49.880;8.648;2022-08-01T01:48:49;24.70;99.90
29241;DHT22;16268;49.880;8.648;2022-08-01T01:51:16;24.60;99.90
29241;DHT22;16268;49.880;8.648;2022-08-01T01:53:43;24.60;99.90
29241;DHT22;16268;49.880;8.648;2022-08-01T01:56:09;24.50;99.90
29241;DHT22;16268;49.880;8.648;2022-08-01T01:58:37;24.50;99.90
29241;DHT22;16268;49.880;8.648;2022-08-01T02:01:04;24.40;99.90
29241;DHT22;16268;49.880;8.648;2022-08-01T02:03:33;24.30;99.90
29241;DHT22;16268;49.880;8.648;2022-08-01T02:06:02;24.30;99.90
29241;DHT22;16268;49.880;8.648;2022-08-01T02:08:29;24.30;99.90
29241;DHT22;16268;49.880;8.648;2022-08-01T02:10:56;24.20;99.90
29241;DHT22;16268;49.880;8.648;2022-08-01T02:13:42;24.20;99.90
29241;DHT22;16268;49.880;8.648;2022-08-01T02:16:09;24.20;99.90
29241;DHT22;16268;49.880;8.648;2022-08-01T02:18:36;24.10;99.90
29241;DHT22;16268;49.880;8.648;2022-08-01T02:21:04;24.10;99.90
29241;DHT22;16268;49.880;8.648;2022-08-01T02:23:33;24.00;99.90
29241;DHT22;16268;49.880;8.648;2022-08-01T02:26:01;24.00;99.90
29241;DHT22;16268;49.880;8.648;2022-08-01T02:28:33;24.00;99.90
29241;DHT22;16268;49.880;8.648;2022-08-01T02:31:02;24.00;99.90
29241;DHT22;16268;49.880;8.648;2022-08-01T02:33:38;24.00;99.90
29241;DHT22;16268;49.880;8.648;2022-08-01T02:36:05;24.00;99.90
29241;DHT22;16268;49.880;8.648;2022-08-01T02:38:34;24.00;99.90
29241;DHT22;16268;49.880;8.648;2022-08-01T02:41:09;24.00;99.90
29241;DHT22;16268;49.880;8.648;2022-08-01T02:43:38;24.00;99.90
29241;DHT22;16268;49.880;8.648;2022-08-01T02:46:08;23.90;99.90
29241;DHT22;16268;49.880;8.648;2022-08-01T02:48:38;23.90;99.90
29241;DHT22;16268;49.880;8.648;2022-08-01T02:51:06;23.90;99.90
29241;DHT22;16268;49.880;8.648;2022-08-01T02:53:34;23.90;99.90
29241;DHT22;16268;49.880;8.648;2022-08-01T02:56:04;23.90;99.90
29241;DHT22;16268;49.880;8.648;2022-08-01T02:58:30;24.00;99.90
29241;DHT22;16268;49.880;8.648;2022-08-01T03:00:57;24.00;99.90
29241;DHT22;16268;49.880;8.648;2022-08-01T03:03:24;24.00;99.90
29241;DHT22;16268;49.880;8.648;2022-08-01T03:05:50;24.10;99.90
29241;DHT22;16268;49.880;8.648;2022-08-01T03:08:16;24.00;99.90
29241;DHT22;16268;49.880;8.648;2022-08-01T03:10:44;24.10;99.90
29241;DHT22;16268;49.880;8.648;2022-08-01T03:13:11;24.00;99.90
29241;DHT22;16268;49.880;8.648;2022-08-01T03:15:40;24.00;99.90
29241;DHT22;16268;49.880;8.648;2022-08-01T03:18:09;24.00;99.90
29241;DHT22;16268;49.880;8.648;2022-08-01T03:20:35;24.00;99.90
29241;DHT22;16268;49.880;8.648;2022-08-01T03:23:04;24.00;99.90
29241;DHT22;16268;49.880;8.648;2022-08-01T03:25:31;24.00;99.90
29241;DHT22;16268;49.880;8.648;2022-08-01T03:27:59;23.90;99.90
29241;DHT22;16268;49.880;8.648;2022-08-01T03:30:27;23.90;99.90
29241;DHT22;16268;49.880;8.648;2022-08-01T03:32:54;23.90;99.90
29241;DHT22;16268;49.880;8.648;2022-08-01T03:35:22;23.90;99.90
29241;DHT22;16268;49.880;8.648;2022-08-01T03:37:52;23.90;99.90
29241;DHT22;16268;49.880;8.648;2022-08-01T03:42:57;23.80;99.90
29241;DHT22;16268;49.880;8.648;2022-08-01T03:45:30;23.80;99.90
29241;DHT22;16268;49.880;8.648;2022-08-01T03:48:05;23.80;99.90
29241;DHT22;16268;49.880;8.648;2022-08-01T03:50:34;23.70;99.90
29241;DHT22;16268;49.880;8.648;2022-08-01T03:53:02;23.70;99.90
29241;DHT22;16268;49.880;8.648;2022-08-01T03:55:31;23.60;99.90
29241;DHT22;16268;49.880;8.648;2022-08-01T03:57:58;23.60;99.90
29241;DHT22;16268;49.880;8.648;2022-08-01T04:00:25;23.60;99.90
29241;DHT22;16268;49.880;8.648;2022-08-01T04:02:51;23.60;99.90
29241;DHT22;16268;49.880;8.648;2022-08-01T04:05:17;23.50;99.90
29241;DHT22;16268;49.880;8.648;2022-08-01T04:07:50;23.50;99.90
29241;DHT22;16268;49.880;8.648;2022-08-01T04:10:21;23.50;99.90
29241;DHT22;16268;49.880;8.648;2022-08-01T04:12:47;23.50;99.90
29241;DHT22;16268;49.880;8.648;2022-08-01T04:15:13;23.40;99.90
29241;DHT22;16268;49.880;8.648;2022-08-01T04:17:39;23.30;99.90
29241;DHT22;16268;49.880;8.648;2022-08-01T04:20:05;23.30;99.90
29241;DHT22;16268;49.880;8.648;2022-08-01T04:22:31;23.20;99.90
29241;DHT22;16268;49.880;8.648;2022-08-01T04:24:57;23.10;99.90
29241;DHT22;16268;49.880;8.648;2022-08-01T04:27:28;23.10;99.90
29241;DHT22;16268;49.880;8.648;2022-08-01T04:29:57;23.00;99.90
29241;DHT22;16268;49.880;8.648;2022-08-01T04:32:25;23.00;99.90
29241;DHT22;16268;49.880;8.648;2022-08-01T04:34:54;22.90;99.90
29241;DHT22;16268;49.880;8.648;2022-08-01T04:37:22;22.90;99.90
29241;DHT22;16268;49.880;8.648;2022-08-01T04:39:49;22.90;99.90
29241;DHT22;16268;49.880;8.648;2022-08-01T04:42:17;22.90;99.90
29241;DHT22;16268;49.880;8.648;2022-08-01T04:44:43;22.90;99.90
29241;DHT22;16268;49.880;8.648;2022-08-01T04:47:09;23.00;99.90
29241;DHT22;16268;49.880;8.648;2022-08-01T04:49:36;23.00;99.90
29241;DHT22;16268;49.880;8.648;2022-08-01T04:52:01;23.00;99.90
29241;DHT22;16268;49.880;8.648;2022-08-01T04:54:28;23.10;99.90
29241;DHT22;16268;49.880;8.648;2022-08-01T04:56:55;23.10;99.90
29241;DHT22;16268;49.880;8.648;2022-08-01T04:59:34;23.20;99.90
29241;DHT22;16268;49.880;8.648;2022-08-01T05:02:15;23.30;99.90
29241;DHT22;16268;49.880;8.648;2022-08-01T05:04:41;23.30;99.90
29241;DHT22;16268;49.880;8.648;2022-08-01T05:07:07;23.40;99.90
29241;DHT22;16268;49.880;8.648;2022-08-01T05:09:34;23.40;99.90
29241;DHT22;16268;49.880;8.648;2022-08-01T05:12:01;23.50;99.90
29241;DHT22;16268;49.880;8.648;2022-08-01T05:14:29;23.40;99.90
29241;DHT22;16268;49.880;8.648;2022-08-01T05:17:00;23.40;99.90
29241;DHT22;16268;49.880;8.648;2022-08-01T05:19:29;23.40;99.90
29241;DHT22;16268;49.880;8.648;2022-08-01T05:21:55;23.40;99.90
29241;DHT22;16268;49.880;8.648;2022-08-01T05:24:21;23.50;99.90
29241;DHT22;16268;49.880;8.648;2022-08-01T05:26:47;23.60;99.90
29241;DHT22;16268;49.880;8.648;2022-08-01T05:29:14;23.80;99.90
29241;DHT22;16268;49.880;8.648;2022-08-01T05:31:40;23.90;99.90
29241;DHT22;16268;49.880;8.648;2022-08-01T05:34:05;24.00;99.90
29241;DHT22;16268;49.880;8.648;2022-08-01T05:36:31;24.10;99.90
29241;DHT22;16268;49.880;8.648;2022-08-01T05:38:56;24.10;99.90
29241;DHT22;16268;49.880;8.648;2022-08-01T05:41:22;24.10;99.90
29241;DHT22;16268;49.880;8.648;2022-08-01T05:43:47;24.10;99.90
29241;DHT22;16268;49.880;8.648;2022-08-01T05:46:13;24.10;99.90
29241;DHT22;16268;49.880;8.648;2022-08-01T05:48:39;23.90;99.90
29241;DHT22;16268;49.880;8.648;2022-08-01T05:51:04;23.80;99.90
29241;DHT22;16268;49.880;8.648;2022-08-01T05:53:30;23.80;99.90
29241;DHT22;16268;49.880;8.648;2022-08-01T05:55:55;23.80;99.90
29241;DHT22;16268;49.880;8.648;2022-08-01T05:58:22;23.80;99.90
29241;DHT22;16268;49.880;8.648;2022-08-01T06:00:47;23.80;99.90
29241;DHT22;16268;49.880;8.648;2022-08-01T06:03:13;23.80;99.90
29241;DHT22;16268;49.880;8.648;2022-08-01T06:05:39;23.90;99.90
29241;DHT22;16268;49.880;8.648;2022-08-01T06:08:05;23.90;99.90
29241;DHT22;16268;49.880;8.648;2022-08-01T06:10:30;23.80;99.90
29241;DHT22;16268;49.880;8.648;2022-08-01T06:12:56;23.80;99.90
29241;DHT22;16268;49.880;8.648;2022-08-01T06:15:22;23.70;99.90
29241;DHT22;16268;49.880;8.648;2022-08-01T06:17:47;23.70;99.90
29241;DHT22;16268;49.880;8.648;2022-08-01T06:20:13;23.70;99.90
29241;DHT22;16268;49.880;8.648;2022-08-01T06:22:38;23.80;99.90
29241;DHT22;16268;49.880;8.648;2022-08-01T06:25:04;23.80;99.90
29241;DHT22;16268;49.880;8.648;2022-08-01T06:27:30;23.80;99.90
29241;DHT22;16268;49.880;8.648;2022-08-01T06:29:59;23.90;99.90
29241;DHT22;16268;49.880;8.648;2022-08-01T06:32:24;24.00;99.90
29241;DHT22;16268;49.880;8.648;2022-08-01T06:34:51;24.10;99.90
29241;DHT22;16268;49.880;8.648;2022-08-01T06:37:17;24.10;99.90
29241;DHT22;16268;49.880;8.648;2022-08-01T06:39:42;24.10;99.90
29241;DHT22;16268;49.880;8.648;2022-08-01T06:42:08;24.30;99.90
29241;DHT22;16268;49.880;8.648;2022-08-01T06:44:34;24.30;99.90
29241;DHT22;16268;49.880;8.648;2022-08-01T06:47:00;24.30;99.90
29241;DHT22;16268;49.880;8.648;2022-08-01T06:49:26;24.30;99.90
29241;DHT22;16268;49.880;8.648;2022-08-01T06:51:51;24.40;99.90
29241;DHT22;16268;49.880;8.648;2022-08-01T06:54:17;24.50;99.90
29241;DHT22;16268;49.880;8.648;2022-08-01T06:56:42;24.60;99.90
29241;DHT22;16268;49.880;8.648;2022-08-01T06:59:08;24.60;99.90
29241;DHT22;16268;49.880;8.648;2022-08-01T07:01:34;24.60;99.90
29241;DHT22;16268;49.880;8.648;2022-08-01T07:04:00;24.60;99.90
29241;DHT22;16268;49.880;8.648;2022-08-01T07:06:25;24.70;99.90
29241;DHT22;16268;49.880;8.648;2022-08-01T07:08:54;24.80;99.90
29241;DHT22;16268;49.880;8.648;2022-08-01T07:11:21;25.00;99.90
29241;DHT22;16268;49.880;8.648;2022-08-01T07:13:46;25.30;99.90
29241;DHT22;16268;49.880;8.648;2022-08-01T07:16:13;25.50;99.90
29241;DHT22;16268;49.880;8.648;2022-08-01T07:18:39;26.00;99.90
29241;DHT22;16268;49.880;8.648;2022-08-01T07:21:05;26.00;99.90
29241;DHT22;16268;49.880;8.648;2022-08-01T07:23:31;26.10;99.90
29241;DHT22;16268;49.880;8.648;2022-08-01T07:25:57;26.80;99.90
29241;DHT22;16268;49.880;8.648;2022-08-01T07:28:23;27.10;99.90
29241;DHT22;16268;49.880;8.648;2022-08-01T07:30:48;27.30;99.90
29241;DHT22;16268;49.880;8.648;2022-08-01T07:33:14;27.30;99.90
29241;DHT22;16268;49.880;8.648;2022-08-01T07:35:40;27.30;99.90
29241;DHT22;16268;49.880;8.648;2022-08-01T07:38:06;27.50;99.90
29241;DHT22;16268;49.880;8.648;2022-08-01T07:40:32;28.10;99.60
29241;DHT22;16268;49.880;8.648;2022-08-01T07:42:58;29.60;97.10
29241;DHT22;16268;49.880;8.648;2022-08-01T07:45:23;30.70;93.80
29241;DHT22;16268;49.880;8.648;2022-08-01T07:47:49;30.90;92.30
29241;DHT22;16268;49.880;8.648;2022-08-01T07:50:15;31.10;91.30
29241;DHT22;16268;49.880;8.648;2022-08-01T07:52:41;30.90;91.00
29241;DHT22;16268;49.880;8.648;2022-08-01T07:55:08;31.10;90.60
29241;DHT22;16268;49.880;8.648;2022-08-01T07:57:34;31.30;90.00
29241;DHT22;16268;49.880;8.648;2022-08-01T08:00:00;31.00;90.20
29241;DHT22;16268;49.880;8.648;2022-08-01T08:02:26;31.50;89.10
29241;DHT22;16268;49.880;8.648;2022-08-01T08:04:52;31.80;86.20
29241;DHT22;16268;49.880;8.648;2022-08-01T08:07:17;30.40;88.60
29241;DHT22;16268;49.880;8.648;2022-08-01T08:09:43;30.50;90.00
29241;DHT22;16268;49.880;8.648;2022-08-01T08:12:09;29.80;90.80
29241;DHT22;16268;49.880;8.648;2022-08-01T08:14:35;29.60;91.40
29241;DHT22;16268;49.880;8.648;2022-08-01T08:17:00;29.80;91.50
29241;DHT22;16268;49.880;8.648;2022-08-01T08:19:26;30.30;91.10
29241;DHT22;16268;49.880;8.648;2022-08-01T08:21:52;31.20;89.30
29241;DHT22;16268;49.880;8.648;2022-08-01T08:24:17;32.00;86.20
29241;DHT22;16268;49.880;8.648;2022-08-01T08:26:51;32.40;83.70
29241;DHT22;16268;49.880;8.648;2022-08-01T08:29:17;32.30;82.80
29241;DHT22;16268;49.880;8.648;2022-08-01T08:31:43;32.30;81.80
29241;DHT22;16268;49.880;8.648;2022-08-01T08:34:08;32.40;81.80
29241;DHT22;16268;49.880;8.648;2022-08-01T08:36:35;31.90;81.70
29241;DHT22;16268;49.880;8.648;2022-08-01T08:39:01;31.80;83.30
29241;DHT22;16268;49.880;8.648;2022-08-01T08:41:28;31.50;83.10
29241;DHT22;16268;49.880;8.648;2022-08-01T08:43:54;31.20;84.80
29241;DHT22;16268;49.880;8.648;2022-08-01T08:46:22;30.60;86.10
29241;DHT22;16268;49.880;8.648;2022-08-01T08:48:48;30.30;86.30
29241;DHT22;16268;49.880;8.648;2022-08-01T08:51:16;29.90;87.40
29241;DHT22;16268;49.880;8.648;2022-08-01T08:53:44;29.50;89.30
29241;DHT22;16268;49.880;8.648;2022-08-01T08:56:13;29.00;90.60
29241;DHT22;16268;49.880;8.648;2022-08-01T08:58:41;28.90;91.20
29241;DHT22;16268;49.880;8.648;2022-08-01T09:01:09;28.60;92.00
29241;DHT22;16268;49.880;8.648;2022-08-01T09:03:36;28.50;92.20
29241;DHT22;16268;49.880;8.648;2022-08-01T09:06:01;28.20;92.80
29241;DHT22;16268;49.880;8.648;2022-08-01T09:08:28;27.80;93.80
29241;DHT22;16268;49.880;8.648;2022-08-01T09:10:53;27.60;94.40
29241;DHT22;16268;49.880;8.648;2022-08-01T09:13:19;27.30;95.10
29241;DHT22;16268;49.880;8.648;2022-08-01T09:15:47;27.10;95.70
29241;DHT22;16268;49.880;8.648;2022-08-01T09:18:29;27.10;96.30
29241;DHT22;16268;49.880;8.648;2022-08-01T09:23:38;27.40;96.10
29241;DHT22;16268;49.880;8.648;2022-08-01T09:26:06;27.80;95.50
29241;DHT22;16268;49.880;8.648;2022-08-01T09:28:32;28.20;95.00
29241;DHT22;16268;49.880;8.648;2022-08-01T09:30:58;28.30;94.50
29241;DHT22;16268;49.880;8.648;2022-08-01T09:33:24;28.60;94.50
29241;DHT22;16268;49.880;8.648;2022-08-01T09:35:56;29.00;93.60
29241;DHT22;16268;49.880;8.648;2022-08-01T09:38:24;29.20;92.70
29241;DHT22;16268;49.880;8.648;2022-08-01T09:43:19;29.10;93.00
29241;DHT22;16268;49.880;8.648;2022-08-01T09:45:45;29.40;92.40
29241;DHT22;16268;49.880;8.648;2022-08-01T09:48:11;29.60;92.00
29241;DHT22;16268;49.880;8.648;2022-08-01T09:50:41;29.50;91.80
29241;DHT22;16268;49.880;8.648;2022-08-01T09:53:08;29.20;91.80
29241;DHT22;16268;49.880;8.648;2022-08-01T09:55:33;29.60;91.50
29241;DHT22;16268;49.880;8.648;2022-08-01T09:57:59;29.60;90.40
29241;DHT22;16268;49.880;8.648;2022-08-01T10:00:26;29.10;91.10
29241;DHT22;16268;49.880;8.648;2022-08-01T10:02:52;29.00;91.90
29241;DHT22;16268;49.880;8.648;2022-08-01T10:05:17;29.30;91.60
29241;DHT22;16268;49.880;8.648;2022-08-01T10:07:56;29.70;91.50
29241;DHT22;16268;49.880;8.648;2022-08-01T10:10:22;30.50;90.00
29241;DHT22;16268;49.880;8.648;2022-08-01T10:12:48;30.10;89.50
29241;DHT22;16268;49.880;8.648;2022-08-01T10:15:15;29.80;90.30
29241;DHT22;16268;49.880;8.648;2022-08-01T10:17:46;30.00;90.30
29241;DHT22;16268;49.880;8.648;2022-08-01T10:20:20;30.20;90.00
29241;DHT22;16268;49.880;8.648;2022-08-01T10:22:47;30.60;88.60
29241;DHT22;16268;49.880;8.648;2022-08-01T10:25:16;31.20;89.00
29241;DHT22;16268;49.880;8.648;2022-08-01T10:27:43;31.80;84.60
29241;DHT22;16268;49.880;8.648;2022-08-01T10:30:11;31.60;83.40
29241;DHT22;16268;49.880;8.648;2022-08-01T10:32:37;31.30;83.30
29241;DHT22;16268;49.880;8.648;2022-08-01T10:35:06;31.20;83.40
29241;DHT22;16268;49.880;8.648;2022-08-01T10:37:34;30.90;84.60
29241;DHT22;16268;49.880;8.648;2022-08-01T10:40:01;30.50;86.00
29241;DHT22;16268;49.880;8.648;2022-08-01T10:42:27;30.10;87.00
29241;DHT22;16268;49.880;8.648;2022-08-01T10:44:54;30.00;88.50
29241;DHT22;16268;49.880;8.648;2022-08-01T10:47:38;30.30;85.60
29241;DHT22;16268;49.880;8.648;2022-08-01T10:50:17;30.50;84.80
29241;DHT22;16268;49.880;8.648;2022-08-01T10:53:16;30.60;84.80
29241;DHT22;16268;49.880;8.648;2022-08-01T10:55:58;30.00;86.50
29241;DHT22;16268;49.880;8.648;2022-08-01T10:58:34;30.30;85.90
29241;DHT22;16268;49.880;8.648;2022-08-01T11:03:44;30.00;84.90
29241;DHT22;16268;49.880;8.648;2022-08-01T11:06:17;29.90;85.80
29241;DHT22;16268;49.880;8.648;2022-08-01T11:08:51;29.80;87.40
29241;DHT22;16268;49.880;8.648;2022-08-01T11:11:18;29.80;86.40
29241;DHT22;16268;49.880;8.648;2022-08-01T11:14:16;29.40;86.10
29241;DHT22;16268;49.880;8.648;2022-08-01T11:16:42;29.00;88.40
29241;DHT22;16268;49.880;8.648;2022-08-01T11:19:08;29.20;87.50
29241;DHT22;16268;49.880;8.648;2022-08-01T11:27:29;29.20;87.60
29241;DHT22;16268;49.880;8.648;2022-08-01T11:32:56;29.00;87.20
29241;DHT22;16268;49.880;8.648;2022-08-01T11:35:24;29.20;87.50
29241;DHT22;16268;49.880;8.648;2022-08-01T11:37:53;29.40;86.60
29241;DHT22;16268;49.880;8.648;2022-08-01T11:40:26;29.40;84.80
29241;DHT22;16268;49.880;8.648;2022-08-01T11:45:49;29.50;84.90
29241;DHT22;16268;49.880;8.648;2022-08-01T11:48:23;29.40;85.30
29241;DHT22;16268;49.880;8.648;2022-08-01T11:50:57;29.20;86.10
29241;DHT22;16268;49.880;8.648;2022-08-01T11:53:22;29.20;85.00
29241;DHT22;16268;49.880;8.648;2022-08-01T11:55:53;29.20;84.00
29241;DHT22;16268;49.880;8.648;2022-08-01T11:58:26;29.50;86.20
29241;DHT22;16268;49.880;8.648;2022-08-01T12:00:56;29.70;85.70
29241;DHT22;16268;49.880;8.648;2022-08-01T12:03:26;29.90;86.20
29241;DHT22;16268;49.880;8.648;2022-08-01T12:05:53;29.80;85.10
29241;DHT22;16268;49.880;8.648;2022-08-01T12:08:29;29.80;85.30
29241;DHT22;16268;49.880;8.648;2022-08-01T12:10:56;30.00;84.90
29241;DHT22;16268;49.880;8.648;2022-08-01T12:13:21;30.00;83.10
29241;DHT22;16268;49.880;8.648;2022-08-01T12:15:48;29.90;82.80
29241;DHT22;16268;49.880;8.648;2022-08-01T12:18:15;30.10;83.20
29241;DHT22;16268;49.880;8.648;2022-08-01T12:20:44;30.00;83.20
29241;DHT22;16268;49.880;8.648;2022-08-01T12:23:12;30.00;82.50
29241;DHT22;16268;49.880;8.648;2022-08-01T12:25:39;29.60;82.90
29241;DHT22;16268;49.880;8.648;2022-08-01T12:28:09;29.70;84.40
29241;DHT22;16268;49.880;8.648;2022-08-01T12:30:36;29.90;83.90
29241;DHT22;16268;49.880;8.648;2022-08-01T12:33:04;29.90;84.40
29241;DHT22;16268;49.880;8.648;2022-08-01T12:35:30;30.20;83.60
29241;DHT22;16268;49.880;8.648;2022-08-01T12:37:59;30.20;82.00
29241;DHT22;16268;49.880;8.648;2022-08-01T12:40:28;30.20;80.30
29241;DHT22;16268;49.880;8.648;2022-08-01T12:42:56;30.20;80.80
29241;DHT22;16268;49.880;8.648;2022-08-01T12:45:27;30.20;80.70
29241;DHT22;16268;49.880;8.648;2022-08-01T12:47:54;30.00;80.00
29241;DHT22;16268;49.880;8.648;2022-08-01T12:50:22;29.80;80.40
29241;DHT22;16268;49.880;8.648;2022-08-01T12:52:50;29.90;81.10
29241;DHT22;16268;49.880;8.648;2022-08-01T12:55:16;30.10;80.80
29241;DHT22;16268;49.880;8.648;2022-08-01T12:57:48;30.20;81.00
29241;DHT22;16268;49.880;8.648;2022-08-01T13:00:20;30.20;80.40
29241;DHT22;16268;49.880;8.648;2022-08-01T13:02:47;30.20;81.00
29241;DHT22;16268;49.880;8.648;2022-08-01T13:05:14;30.30;81.20
29241;DHT22;16268;49.880;8.648;2022-08-01T13:07:49;30.40;80.80
29241;DHT22;16268;49.880;8.648;2022-08-01T13:10:23;30.40;79.80
29241;DHT22;16268;49.880;8.648;2022-08-01T13:12:55;30.40;80.30
29241;DHT22;16268;49.880;8.648;2022-08-01T13:15:32;30.30;79.60
29241;DHT22;16268;49.880;8.648;2022-08-01T13:18:01;29.90;80.60
29241;DHT22;16268;49.880;8.648;2022-08-01T13:20:46;30.00;80.10
29241;DHT22;16268;49.880;8.648;2022-08-01T13:23:19;30.20;80.90
29241;DHT22;16268;49.880;8.648;2022-08-01T13:25:55;30.30;79.80
29241;DHT22;16268;49.880;8.648;2022-08-01T13:28:25;30.40;79.70
29241;DHT22;16268;49.880;8.648;2022-08-01T13:31:00;30.60;79.30
29241;DHT22;16268;49.880;8.648;2022-08-01T13:33:28;30.80;78.50
29241;DHT22;16268;49.880;8.648;2022-08-01T13:35:55;30.90;78.10
29241;DHT22;16268;49.880;8.648;2022-08-01T13:38:22;30.90;78.20
29241;DHT22;16268;49.880;8.648;2022-08-01T13:41:06;31.00;77.10
29241;DHT22;16268;49.880;8.648;2022-08-01T13:43:32;30.80;76.90
29241;DHT22;16268;49.880;8.648;2022-08-01T13:45:58;31.00;76.10
29241;DHT22;16268;49.880;8.648;2022-08-01T13:48:23;31.00;76.10
29241;DHT22;16268;49.880;8.648;2022-08-01T13:50:49;31.00;75.90
29241;DHT22;16268;49.880;8.648;2022-08-01T13:53:14;31.00;75.80
29241;DHT22;16268;49.880;8.648;2022-08-01T13:55:40;30.90;76.20
29241;DHT22;16268;49.880;8.648;2022-08-01T13:58:05;30.90;76.70
29241;DHT22;16268;49.880;8.648;2022-08-01T14:00:31;30.80;76.50
29241;DHT22;16268;49.880;8.648;2022-08-01T14:02:57;30.70;76.20
29241;DHT22;16268;49.880;8.648;2022-08-01T14:05:22;30.50;76.30
29241;DHT22;16268;49.880;8.648;2022-08-01T14:07:48;30.50;76.70
29241;DHT22;16268;49.880;8.648;2022-08-01T14:10:13;30.60;76.50
29241;DHT22;16268;49.880;8.648;2022-08-01T14:12:39;30.50;75.70
29241;DHT22;16268;49.880;8.648;2022-08-01T14:15:05;30.60;76.50
29241;DHT22;16268;49.880;8.648;2022-08-01T14:17:32;30.50;76.50
29241;DHT22;16268;49.880;8.648;2022-08-01T14:19:57;30.50;76.80
29241;DHT22;16268;49.880;8.648;2022-08-01T14:22:24;30.70;76.70
29241;DHT22;16268;49.880;8.648;2022-08-01T14:24:50;30.80;76.50
29241;DHT22;16268;49.880;8.648;2022-08-01T14:27:15;30.80;75.70
29241;DHT22;16268;49.880;8.648;2022-08-01T14:29:41;30.80;75.70
29241;DHT22;16268;49.880;8.648;2022-08-01T14:32:06;30.90;75.50
29241;DHT22;16268;49.880;8.648;2022-08-01T14:34:32;30.70;75.80
29241;DHT22;16268;49.880;8.648;2022-08-01T14:36:57;30.40;77.50
29241;DHT22;16268;49.880;8.648;2022-08-01T14:39:23;30.30;76.70
29241;DHT22;16268;49.880;8.648;2022-08-01T14:41:48;30.20;77.10
29241;DHT22;16268;49.880;8.648;2022-08-01T14:44:14;30.20;77.10
29241;DHT22;16268;49.880;8.648;2022-08-01T14:46:40;30.20;76.90
29241;DHT22;16268;49.880;8.648;2022-08-01T14:49:06;30.20;76.10
29241;DHT22;16268;49.880;8.648;2022-08-01T14:51:32;30.30;76.60
29241;DHT22;16268;49.880;8.648;2022-08-01T14:53:59;30.20;77.10
29241;DHT22;16268;49.880;8.648;2022-08-01T14:56:25;30.00;77.20
29241;DHT22;16268;49.880;8.648;2022-08-01T14:58:50;29.90;76.80
29241;DHT22;16268;49.880;8.648;2022-08-01T15:01:16;29.90;77.30
29241;DHT22;16268;49.880;8.648;2022-08-01T15:03:43;29.90;76.80
29241;DHT22;16268;49.880;8.648;2022-08-01T15:06:08;30.00;77.00
29241;DHT22;16268;49.880;8.648;2022-08-01T15:08:36;29.90;76.60
29241;DHT22;16268;49.880;8.648;2022-08-01T15:11:02;29.90;76.90
29241;DHT22;16268;49.880;8.648;2022-08-01T15:13:27;29.80;77.10
29241;DHT22;16268;49.880;8.648;2022-08-01T15:15:53;29.60;77.70
29241;DHT22;16268;49.880;8.648;2022-08-01T15:18:19;29.50;78.50
29241;DHT22;16268;49.880;8.648;2022-08-01T15:20:44;29.40;79.10
29241;DHT22;16268;49.880;8.648;2022-08-01T15:23:10;29.30;79.40
29241;DHT22;16268;49.880;8.648;2022-08-01T15:25:36;29.30;79.10
29241;DHT22;16268;49.880;8.648;2022-08-01T15:28:01;29.30;80.90
29241;DHT22;16268;49.880;8.648;2022-08-01T15:30:28;29.20;86.20
29241;DHT22;16268;49.880;8.648;2022-08-01T15:32:53;28.80;91.30
29241;DHT22;16268;49.880;8.648;2022-08-01T15:35:19;28.10;99.00
29241;DHT22;16268;49.880;8.648;2022-08-01T15:37:44;27.30;99.90
29241;DHT22;16268;49.880;8.648;2022-08-01T15:40:11;26.00;99.90
29241;DHT22;16268;49.880;8.648;2022-08-01T15:42:37;25.00;99.90
29241;DHT22;16268;49.880;8.648;2022-08-01T15:45:02;24.30;99.90
29241;DHT22;16268;49.880;8.648;2022-08-01T15:47:29;23.80;99.90
29241;DHT22;16268;49.880;8.648;2022-08-01T15:49:54;23.50;99.90
29241;DHT22;16268;49.880;8.648;2022-08-01T15:52:24;23.40;99.90
29241;DHT22;16268;49.880;8.648;2022-08-01T15:54:50;23.30;99.90
29241;DHT22;16268;49.880;8.648;2022-08-01T15:57:16;23.50;99.90
29241;DHT22;16268;49.880;8.648;2022-08-01T15:59:42;23.50;99.90
29241;DHT22;16268;49.880;8.648;2022-08-01T16:02:07;23.60;99.90